createdAt,value
2022-08-19T00:01:11.463Z,15.45
2022-08-19T00:06:14.607Z,15.30
2022-08-19T00:11:25.686Z,13.82
2022-08-19T00:16:28.471Z,15.95
2022-08-19T00:21:31.190Z,14.40
2022-08-19T00:26:34.211Z,16.77
2022-08-19T00:31:36.762Z,17.02
2022-08-19T00:41:42.808Z,17.23
2022-08-19T00:46:55.415Z,16.85
2022-08-19T00:52:09.438Z,15.23
2022-08-19T00:57:16.235Z,16.87
2022-08-19T01:02:18.721Z,16.33
2022-08-19T01:12:24.029Z,17.12
2022-08-19T01:17:26.386Z,15.27
2022-08-19T01:22:34.001Z,17.05
2022-08-19T01:27:42.181Z,19.50
2022-08-19T01:32:45.925Z,19.33
2022-08-19T01:37:49.849Z,21.73
2022-08-19T01:42:53.589Z,15.88
2022-08-19T01:48:02.252Z,18.92
2022-08-19T01:53:08.030Z,15.48
2022-08-19T01:58:23.666Z,13.93
2022-08-19T02:03:26.056Z,14.13
2022-08-19T02:08:28.571Z,13.02
2022-08-19T02:18:33.774Z,14.82
2022-08-19T02:23:35.927Z,20.15
2022-08-19T02:28:38.096Z,22.02
2022-08-19T02:33:40.338Z,15.23
2022-08-19T02:38:43.456Z,17.02
2022-08-19T02:44:26.681Z,17.02
2022-08-19T02:49:12.538Z,13.40
2022-08-19T02:59:18.160Z,13.60
2022-08-19T03:04:25.350Z,16.75
2022-08-19T03:14:32.490Z,13.48
2022-08-19T03:19:35.478Z,15.75
2022-08-19T03:24:38.514Z,15.43
2022-08-19T03:29:43.237Z,13.75
2022-08-19T03:34:47.415Z,13.90
2022-08-19T03:39:49.693Z,24.00
2022-08-19T03:44:51.891Z,14.23
2022-08-19T03:49:54.153Z,16.17
2022-08-19T03:54:56.612Z,17.08
2022-08-19T04:00:13.135Z,15.05
2022-08-19T04:05:16.291Z,13.27
2022-08-19T04:10:18.560Z,12.82
2022-08-19T04:15:21.695Z,15.27
2022-08-19T04:20:23.831Z,15.50
2022-08-19T04:25:25.956Z,14.68
2022-08-19T04:30:28.112Z,15.38
2022-08-19T04:35:36.699Z,17.98
2022-08-19T04:41:05.436Z,13.75
2022-08-19T04:46:39.573Z,13.88
2022-08-19T04:51:37.823Z,15.32
2022-08-19T04:56:40.997Z,12.65
2022-08-19T05:01:44.378Z,12.90
2022-08-19T05:06:48.806Z,11.15
2022-08-19T05:11:53.754Z,12.48
2022-08-19T05:17:11.463Z,11.60
2022-08-19T05:22:33.839Z,13.43
2022-08-19T05:27:36.068Z,18.27
2022-08-19T05:32:39.345Z,12.07
2022-08-19T05:37:41.800Z,9.63
2022-08-19T05:47:46.430Z,12.35
2022-08-19T05:52:51.063Z,12.85
2022-08-19T05:57:53.224Z,14.38
2022-08-19T06:02:57.467Z,13.52
2022-08-19T06:07:59.700Z,17.05
2022-08-19T06:13:01.906Z,11.77
2022-08-19T06:18:04.441Z,16.77
2022-08-19T06:23:06.649Z,6.87
2022-08-19T06:28:15.018Z,10.73
2022-08-19T06:33:17.770Z,7.87
2022-08-19T06:38:23.410Z,10.18
2022-08-19T06:43:29.099Z,7.82
2022-08-19T06:48:34.676Z,10.85
2022-08-19T06:53:40.552Z,7.80
2022-08-19T06:58:43.167Z,8.30
2022-08-19T07:08:49.386Z,12.07
2022-08-19T07:13:52.084Z,12.43
2022-08-19T07:19:00.311Z,9.18
2022-08-19T07:24:13.840Z,8.00
2022-08-19T07:29:17.377Z,12.18
2022-08-19T07:34:20.713Z,8.13
2022-08-19T07:44:27.778Z,7.00
2022-08-19T07:49:30.058Z,9.60
2022-08-19T07:59:37.591Z,10.70
2022-08-19T08:04:58.236Z,14.13
2022-08-19T08:10:03.268Z,8.65
2022-08-19T08:15:12.430Z,9.20
2022-08-19T08:20:15.614Z,11.70
2022-08-19T08:25:21.393Z,8.57
2022-08-19T08:30:25.634Z,7.22
2022-08-19T08:35:34.367Z,10.68
2022-08-19T08:40:52.256Z,9.48
2022-08-19T08:46:30.569Z,7.30
2022-08-19T08:51:59.586Z,11.48
2022-08-19T08:57:08.413Z,8.65
2022-08-19T09:02:10.693Z,9.55
2022-08-19T09:07:36.101Z,11.90
2022-08-19T09:13:20.973Z,12.02
2022-08-19T09:18:24.051Z,8.70
2022-08-19T09:23:27.027Z,9.15
2022-08-19T09:28:32.450Z,9.50
2022-08-19T09:33:34.651Z,9.68
2022-08-19T09:38:43.653Z,7.82
2022-08-19T09:43:50.089Z,9.27
2022-08-19T09:48:54.347Z,6.78
2022-08-19T09:54:01.286Z,8.25
2022-08-19T09:59:06.925Z,10.43
2022-08-19T10:04:14.640Z,11.15
2022-08-19T10:09:26.367Z,6.18
2022-08-19T10:14:36.865Z,6.93
2022-08-19T10:19:41.509Z,16.27
2022-08-19T10:24:57.543Z,6.03
2022-08-19T10:29:59.763Z,8.48
2022-08-19T10:35:08.822Z,7.12
2022-08-19T10:40:12.297Z,5.93
2022-08-19T10:45:16.930Z,8.45
2022-08-19T10:50:38.411Z,5.12
2022-08-19T10:55:59.921Z,6.47
2022-08-19T11:01:02.186Z,8.25
2022-08-19T11:06:10.277Z,7.05
2022-08-19T11:11:13.481Z,5.18
2022-08-19T11:16:19.674Z,5.28
2022-08-19T11:21:24.378Z,4.65
2022-08-19T11:26:30.308Z,6.50
2022-08-19T11:31:36.671Z,6.07
2022-08-19T11:36:41.952Z,4.80
2022-08-19T11:41:44.417Z,5.53
2022-08-19T11:46:47.447Z,6.43
2022-08-19T11:51:51.579Z,5.45
2022-08-19T11:56:57.190Z,6.68
2022-08-19T12:02:00.063Z,7.28
2022-08-19T12:07:02.749Z,5.60
2022-08-19T12:12:05.641Z,4.43
2022-08-19T12:17:09.701Z,3.58
2022-08-19T12:22:11.798Z,7.15
2022-08-19T12:27:14.112Z,4.53
2022-08-19T12:32:34.737Z,7.20
2022-08-19T12:37:37.012Z,6.57
2022-08-19T12:42:43.194Z,6.25
2022-08-19T12:47:47.119Z,3.97
2022-08-19T12:52:50.044Z,3.33
2022-08-19T12:57:52.572Z,3.97
2022-08-19T13:02:55.283Z,3.25
2022-08-19T13:08:00.605Z,3.15
2022-08-19T13:13:08.738Z,4.47
2022-08-19T13:18:12.031Z,4.80
2022-08-19T13:23:14.219Z,3.03
2022-08-19T13:28:16.506Z,4.30
2022-08-19T13:33:19.553Z,2.92
2022-08-19T13:38:22.950Z,2.33
2022-08-19T13:43:27.775Z,2.92
2022-08-19T13:48:29.909Z,3.40
2022-08-19T13:53:32.111Z,2.65
2022-08-19T13:58:34.643Z,4.95
2022-08-19T14:03:38.403Z,3.00
2022-08-19T14:08:46.024Z,4.00
2022-08-19T14:13:48.644Z,4.93
2022-08-19T14:18:51.330Z,2.72
2022-08-19T14:23:54.264Z,4.80
2022-08-19T14:28:58.179Z,2.55
2022-08-19T14:34:00.354Z,4.40
2022-08-19T14:39:02.624Z,3.00
2022-08-19T14:44:04.802Z,3.45
2022-08-19T14:49:09.389Z,6.55
2022-08-19T14:54:11.927Z,2.62
2022-08-19T14:59:14.385Z,2.78
2022-08-19T15:04:16.735Z,3.20
2022-08-19T15:09:18.913Z,8.32
2022-08-19T15:14:21.781Z,4.28
2022-08-19T15:19:24.742Z,6.75
2022-08-19T15:24:26.917Z,7.78
2022-08-19T15:29:29.231Z,4.37
2022-08-19T15:34:32.431Z,4.55
2022-08-19T15:39:34.808Z,5.82
2022-08-19T15:44:37.017Z,3.50
2022-08-19T15:49:39.504Z,9.23
2022-08-19T15:54:41.821Z,3.78
2022-08-19T16:00:03.355Z,4.87
2022-08-19T16:05:29.143Z,6.60
2022-08-19T16:10:31.386Z,3.60
2022-08-19T16:15:34.061Z,5.50
2022-08-19T16:20:36.320Z,6.03
2022-08-19T16:25:39.339Z,4.25
2022-08-19T16:30:42.812Z,8.43
2022-08-19T16:36:00.397Z,7.30
2022-08-19T16:41:16.474Z,4.18
2022-08-19T16:46:20.371Z,4.03
2022-08-19T16:51:25.239Z,4.20
2022-08-19T16:56:28.872Z,3.62
2022-08-19T17:01:31.321Z,5.75
2022-08-19T17:06:36.430Z,4.90
2022-08-19T17:11:38.607Z,4.03
2022-08-19T17:16:42.414Z,4.93
2022-08-19T17:21:44.637Z,5.35
2022-08-19T17:26:46.949Z,6.47
2022-08-19T17:31:49.164Z,4.37
2022-08-19T17:36:51.565Z,3.60
2022-08-19T17:41:53.826Z,5.93
2022-08-19T17:46:57.965Z,5.78
2022-08-19T17:52:00.551Z,6.80
2022-08-19T17:57:02.748Z,5.87
2022-08-19T18:02:07.883Z,7.40
2022-08-19T18:07:12.360Z,9.18
2022-08-19T18:12:16.376Z,6.47
2022-08-19T18:17:19.388Z,5.03
2022-08-19T18:22:29.486Z,4.50
2022-08-19T18:27:31.699Z,4.57
2022-08-19T18:32:38.040Z,7.75
2022-08-19T18:37:45.358Z,8.00
2022-08-19T18:43:06.062Z,7.95
2022-08-19T18:48:28.244Z,7.93
2022-08-19T18:53:33.296Z,5.22
2022-08-19T18:58:37.573Z,8.85
2022-08-19T19:03:52.796Z,5.62
2022-08-19T19:08:55.608Z,6.43
2022-08-19T19:13:57.879Z,9.98
2022-08-19T19:24:02.837Z,4.97
2022-08-19T19:29:05.087Z,11.10
2022-08-19T19:39:33.994Z,4.95
2022-08-19T19:44:50.996Z,7.30
2022-08-19T19:50:13.732Z,9.18
2022-08-19T19:55:20.506Z,7.12
2022-08-19T20:00:22.763Z,6.57
2022-08-19T20:05:25.905Z,5.47
2022-08-19T20:10:28.532Z,5.03
2022-08-19T20:15:32.075Z,6.53
2022-08-19T20:20:34.981Z,6.62
2022-08-19T20:25:38.471Z,8.48
2022-08-19T20:30:46.454Z,6.18
2022-08-19T20:35:50.326Z,6.00
2022-08-19T20:40:52.835Z,7.22
2022-08-19T20:50:58.324Z,4.67
2022-08-19T21:01:04.111Z,5.85
2022-08-19T21:06:06.989Z,5.55
2022-08-19T21:11:13.851Z,8.70
2022-08-19T21:16:23.051Z,6.10
2022-08-19T21:21:25.247Z,6.43
2022-08-19T21:26:27.794Z,5.78
2022-08-19T21:36:32.059Z,5.05
2022-08-19T21:41:34.242Z,4.90
2022-08-19T21:46:37.477Z,5.22
2022-08-19T21:51:39.754Z,4.15
2022-08-19T21:56:42.458Z,5.22
2022-08-19T22:06:54.300Z,4.75
2022-08-19T22:11:57.777Z,4.72
2022-08-19T22:17:01.080Z,6.97
2022-08-19T22:22:03.390Z,5.18
2022-08-19T22:27:06.817Z,8.20
2022-08-19T22:32:26.987Z,6.60
2022-08-19T22:37:31.858Z,4.35
2022-08-19T22:42:34.043Z,4.25
2022-08-19T22:47:39.344Z,6.18
2022-08-19T22:52:52.059Z,4.82
2022-08-19T22:57:55.748Z,7.87
2022-08-19T23:02:58.387Z,2.58
2022-08-19T23:08:00.513Z,2.72
2022-08-19T23:13:02.782Z,2.45
2022-08-19T23:18:05.439Z,3.78
2022-08-19T23:23:11.007Z,3.67
2022-08-19T23:28:32.540Z,4.03
2022-08-19T23:33:51.291Z,2.55
2022-08-19T23:38:55.740Z,5.70
2022-08-19T23:43:59.618Z,2.50
2022-08-19T23:49:02.621Z,2.28
2022-08-19T23:54:04.855Z,4.45
2022-08-19T23:59:07.027Z,2.33
